createdAt,value
2022-09-06T00:00:42.984Z,17.59
2022-09-06T00:03:09.798Z,17.59
2022-09-06T00:05:36.938Z,17.57
2022-09-06T00:08:05.029Z,17.55
2022-09-06T00:10:32.652Z,17.55
2022-09-06T00:13:07.356Z,17.43
2022-09-06T00:15:35.184Z,17.33
2022-09-06T00:18:03.515Z,17.28
2022-09-06T00:20:31.220Z,17.21
2022-09-06T00:23:02.141Z,17.14
2022-09-06T00:25:29.528Z,17.13
2022-09-06T00:28:03.279Z,17.05
2022-09-06T00:30:31.384Z,17.05
2022-09-06T00:32:58.602Z,17.04
2022-09-06T00:35:26.293Z,16.98
2022-09-06T00:37:57.920Z,16.93
2022-09-06T00:40:24.689Z,16.84
2022-09-06T00:42:51.909Z,16.86
2022-09-06T00:45:19.023Z,16.89
2022-09-06T00:47:45.887Z,16.83
2022-09-06T00:50:14.240Z,16.82
2022-09-06T00:52:41.367Z,16.82
2022-09-06T00:55:08.408Z,16.77
2022-09-06T00:57:35.368Z,16.74
2022-09-06T01:00:04.364Z,16.73
2022-09-06T01:02:31.185Z,16.73
2022-09-06T01:04:58.243Z,16.76
2022-09-06T01:07:38.415Z,16.83
2022-09-06T01:10:32.667Z,16.84
2022-09-06T01:13:08.640Z,16.89
2022-09-06T01:15:56.838Z,16.92
2022-09-06T01:18:33.527Z,16.95
2022-09-06T01:21:12.396Z,16.93
2022-09-06T01:24:16.847Z,16.94
2022-09-06T01:27:07.669Z,16.98
2022-09-06T01:29:39.909Z,16.97
2022-09-06T01:32:22.715Z,16.99
2022-09-06T01:35:11.776Z,16.97
2022-09-06T01:37:38.507Z,16.89
2022-09-06T01:40:05.797Z,16.80
2022-09-06T01:42:33.410Z,16.76
2022-09-06T01:45:02.729Z,16.76
2022-09-06T01:47:38.678Z,16.74
2022-09-06T01:50:24.316Z,16.78
2022-09-06T01:53:01.357Z,16.70
2022-09-06T01:55:35.793Z,16.73
2022-09-06T01:58:29.620Z,16.68
2022-09-06T02:01:05.341Z,16.70
2022-09-06T02:04:01.248Z,16.70
2022-09-06T02:06:31.168Z,16.73
2022-09-06T02:09:10.759Z,16.71
2022-09-06T02:11:42.298Z,16.73
2022-09-06T02:14:15.528Z,16.74
2022-09-06T02:16:44.429Z,16.72
2022-09-06T02:19:33.393Z,16.71
2022-09-06T02:22:02.075Z,16.81
2022-09-06T02:24:31.235Z,17.01
2022-09-06T02:26:58.035Z,17.37
2022-09-06T02:29:25.006Z,17.61
2022-09-06T02:32:00.962Z,17.79
2022-09-06T02:34:27.809Z,17.92
2022-09-06T02:36:55.648Z,18.05
2022-09-06T02:39:22.559Z,18.08
2022-09-06T02:41:49.471Z,18.09
2022-09-06T02:44:16.251Z,18.12
2022-09-06T02:46:42.977Z,18.14
2022-09-06T02:49:09.940Z,18.36
2022-09-06T02:51:38.731Z,18.58
2022-09-06T02:54:06.471Z,18.72
2022-09-06T02:56:33.918Z,18.80
2022-09-06T02:59:00.840Z,18.83
2022-09-06T03:01:28.007Z,18.91
2022-09-06T03:03:54.804Z,18.92
2022-09-06T03:06:21.578Z,18.59
2022-09-06T03:08:48.420Z,18.10
2022-09-06T03:11:16.852Z,17.89
2022-09-06T03:13:43.504Z,17.79
2022-09-06T03:16:10.352Z,17.76
2022-09-06T03:18:37.088Z,17.64
2022-09-06T03:21:04.082Z,17.51
2022-09-06T03:23:30.900Z,17.44
2022-09-06T03:25:57.740Z,17.40
2022-09-06T03:28:24.554Z,17.40
2022-09-06T03:30:51.987Z,17.38
2022-09-06T03:33:19.722Z,17.30
2022-09-06T03:35:54.396Z,17.27
2022-09-06T03:38:21.875Z,17.24
2022-09-06T03:40:49.282Z,17.16
2022-09-06T03:43:17.248Z,17.05
2022-09-06T03:45:48.314Z,16.96
2022-09-06T03:48:16.144Z,16.85
2022-09-06T03:50:50.517Z,16.77
2022-09-06T03:53:17.977Z,16.58
2022-09-06T03:55:46.483Z,16.53
2022-09-06T03:58:13.274Z,16.58
2022-09-06T04:00:40.079Z,16.47
2022-09-06T04:03:06.804Z,16.58
2022-09-06T04:05:33.560Z,16.57
2022-09-06T04:08:00.567Z,16.55
2022-09-06T04:10:27.228Z,16.59
2022-09-06T04:12:54.186Z,16.62
2022-09-06T04:15:21.018Z,16.65
2022-09-06T04:17:47.837Z,16.65
2022-09-06T04:20:14.919Z,16.66
2022-09-06T04:22:42.059Z,16.67
2022-09-06T04:25:09.143Z,16.65
2022-09-06T04:27:35.835Z,16.68
2022-09-06T04:30:02.507Z,16.76
2022-09-06T04:32:29.280Z,16.79
2022-09-06T04:34:55.983Z,16.89
2022-09-06T04:37:22.707Z,16.86
2022-09-06T04:39:49.400Z,16.88
2022-09-06T04:42:16.259Z,17.01
2022-09-06T04:44:42.964Z,17.04
2022-09-06T04:47:15.031Z,17.00
2022-09-06T04:49:42.507Z,16.92
2022-09-06T04:52:09.398Z,16.85
2022-09-06T04:54:36.334Z,16.82
2022-09-06T04:57:03.315Z,16.80
2022-09-06T04:59:30.422Z,16.78
2022-09-06T05:01:57.437Z,16.81
2022-09-06T05:04:24.367Z,16.93
2022-09-06T05:07:00.557Z,16.94
2022-09-06T05:09:27.271Z,16.94
2022-09-06T05:11:54.583Z,16.93
2022-09-06T05:14:21.948Z,16.89
2022-09-06T05:16:48.680Z,16.90
2022-09-06T05:19:15.471Z,16.95
2022-09-06T05:21:42.304Z,17.03
2022-09-06T05:24:08.966Z,17.09
2022-09-06T05:26:35.897Z,17.14
2022-09-06T05:29:02.657Z,17.22
2022-09-06T05:31:31.580Z,17.25
2022-09-06T05:33:58.833Z,17.31
2022-09-06T05:36:26.885Z,17.30
2022-09-06T05:38:54.908Z,17.37
2022-09-06T05:41:22.546Z,17.38
2022-09-06T05:43:49.470Z,17.41
2022-09-06T05:46:17.081Z,17.40
2022-09-06T05:48:44.008Z,17.40
2022-09-06T05:51:12.849Z,17.46
2022-09-06T05:53:44.445Z,17.45
2022-09-06T05:56:12.907Z,17.47
2022-09-06T05:58:39.725Z,17.53
2022-09-06T06:01:19.996Z,17.52
2022-09-06T06:03:54.816Z,17.56
2022-09-06T06:06:23.703Z,17.55
2022-09-06T06:08:50.625Z,17.55
2022-09-06T06:11:17.573Z,17.64
2022-09-06T06:13:44.645Z,17.70
2022-09-06T06:16:13.867Z,17.83
2022-09-06T06:18:41.373Z,17.92
2022-09-06T06:21:11.841Z,17.98
2022-09-06T06:23:39.175Z,18.06
2022-09-06T06:26:06.563Z,18.15
2022-09-06T06:28:35.684Z,18.26
2022-09-06T06:31:03.924Z,18.43
2022-09-06T06:33:30.668Z,18.56
2022-09-06T06:36:01.903Z,18.65
2022-09-06T06:38:37.565Z,18.80
2022-09-06T06:41:06.990Z,18.84
2022-09-06T06:43:38.018Z,18.90
2022-09-06T06:46:06.129Z,18.99
2022-09-06T06:48:32.939Z,19.08
2022-09-06T06:50:59.722Z,19.13
2022-09-06T06:53:26.830Z,19.15
2022-09-06T06:55:54.205Z,19.16
2022-09-06T06:58:21.488Z,19.26
2022-09-06T07:00:48.348Z,19.45
2022-09-06T07:03:15.166Z,19.73
2022-09-06T07:08:34.046Z,19.82
2022-09-06T07:11:00.743Z,20.14
2022-09-06T07:13:27.522Z,20.16
2022-09-06T07:16:15.178Z,20.44
2022-09-06T07:18:46.029Z,20.54
2022-09-06T07:26:30.704Z,20.67
2022-09-06T07:29:03.188Z,21.09
2022-09-06T07:34:18.102Z,21.09
2022-09-06T07:36:55.631Z,20.99
2022-09-06T07:39:25.556Z,20.76
2022-09-06T07:41:52.311Z,20.73
2022-09-06T07:44:19.011Z,20.71
2022-09-06T07:46:46.371Z,20.59
2022-09-06T07:49:13.121Z,20.65
2022-09-06T07:51:39.892Z,20.70
2022-09-06T07:54:28.927Z,20.68
2022-09-06T07:56:53.804Z,20.68
2022-09-06T07:59:20.592Z,20.66
2022-09-06T08:01:48.364Z,20.78
2022-09-06T08:04:15.296Z,21.01
2022-09-06T08:09:35.001Z,21.46
2022-09-06T08:12:07.057Z,21.52
2022-09-06T08:14:34.062Z,21.70
2022-09-06T08:17:00.760Z,22.01
2022-09-06T08:19:27.446Z,22.17
2022-09-06T08:21:57.588Z,22.32
2022-09-06T08:24:24.860Z,22.46
2022-09-06T08:26:51.592Z,22.67
2022-09-06T08:29:19.947Z,22.83
2022-09-06T08:31:47.058Z,23.04
2022-09-06T08:34:15.198Z,23.10
2022-09-06T08:36:42.651Z,23.24
2022-09-06T08:39:10.195Z,23.33
2022-09-06T08:41:56.671Z,23.44
2022-09-06T08:45:00.254Z,23.59
2022-09-06T08:47:26.951Z,23.63
2022-09-06T08:50:05.922Z,23.75
2022-09-06T08:53:16.278Z,23.78
2022-09-06T08:56:00.084Z,24.00
2022-09-06T08:58:37.293Z,24.19
2022-09-06T09:01:08.400Z,24.43
2022-09-06T09:03:37.422Z,24.88
2022-09-06T09:06:07.159Z,24.97
2022-09-06T09:08:39.776Z,25.08
2022-09-06T09:11:08.524Z,24.89
2022-09-06T09:13:45.604Z,24.91
2022-09-06T09:16:12.900Z,25.03
2022-09-06T09:18:43.641Z,25.40
2022-09-06T09:21:10.481Z,25.79
2022-09-06T09:23:37.338Z,25.95
2022-09-06T09:26:06.535Z,26.10
2022-09-06T09:28:33.406Z,26.23
2022-09-06T09:31:00.186Z,26.17
2022-09-06T09:33:36.000Z,26.26
2022-09-06T09:36:25.944Z,26.01
2022-09-06T09:38:54.322Z,25.88
2022-09-06T09:41:34.232Z,25.76
2022-09-06T09:44:04.988Z,26.08
2022-09-06T09:46:34.366Z,25.78
2022-09-06T09:49:12.470Z,25.99
2022-09-06T09:51:44.584Z,26.44
2022-09-06T09:54:14.967Z,26.55
2022-09-06T09:56:46.242Z,26.81
2022-09-06T09:59:21.225Z,26.89
2022-09-06T10:01:47.972Z,26.60
2022-09-06T10:04:44.214Z,26.36
2022-09-06T10:07:17.186Z,26.58
2022-09-06T10:09:46.731Z,26.53
2022-09-06T10:12:28.579Z,26.75
2022-09-06T10:14:55.931Z,26.97
2022-09-06T10:17:31.958Z,27.06
2022-09-06T10:20:10.559Z,27.46
2022-09-06T10:22:46.163Z,27.58
2022-09-06T10:25:31.971Z,27.67
2022-09-06T10:28:24.218Z,28.10
2022-09-06T10:31:11.770Z,28.08
2022-09-06T10:34:15.810Z,28.15
2022-09-06T10:36:56.875Z,28.22
2022-09-06T10:39:30.044Z,28.29
2022-09-06T10:42:15.733Z,28.34
2022-09-06T10:45:05.642Z,28.69
2022-09-06T10:47:56.538Z,28.55
2022-09-06T10:50:31.239Z,28.42
2022-09-06T10:53:04.848Z,28.33
2022-09-06T10:55:32.617Z,28.41
2022-09-06T10:58:20.644Z,28.79
2022-09-06T11:00:49.056Z,28.57
2022-09-06T11:06:28.860Z,28.67
2022-09-06T11:09:16.895Z,28.41
2022-09-06T11:12:12.858Z,28.34
2022-09-06T11:14:40.409Z,28.29
2022-09-06T11:17:11.633Z,28.21
2022-09-06T11:20:00.017Z,28.17
2022-09-06T11:22:42.718Z,27.95
2022-09-06T11:25:24.667Z,28.52
2022-09-06T11:27:57.952Z,28.71
2022-09-06T11:30:25.733Z,28.20
2022-09-06T11:33:09.033Z,28.38
2022-09-06T11:35:36.348Z,28.38
2022-09-06T11:38:05.613Z,27.62
2022-09-06T11:40:46.996Z,27.26
2022-09-06T11:43:32.385Z,27.81
2022-09-06T11:45:59.145Z,28.01
2022-09-06T11:48:34.334Z,27.72
2022-09-06T11:51:07.322Z,27.61
2022-09-06T11:53:49.029Z,27.14
2022-09-06T11:56:46.616Z,27.65
2022-09-06T11:59:15.996Z,27.55
2022-09-06T12:01:59.935Z,27.64
2022-09-06T12:05:01.394Z,27.24
2022-09-06T12:07:29.301Z,27.17
2022-09-06T12:09:56.254Z,27.07
2022-09-06T12:12:40.991Z,27.21
2022-09-06T12:15:30.832Z,27.14
2022-09-06T12:17:59.009Z,27.34
2022-09-06T12:20:54.405Z,27.42
2022-09-06T12:23:50.261Z,27.40
2022-09-06T12:26:55.597Z,27.35
2022-09-06T12:29:25.517Z,27.04
2022-09-06T12:31:54.653Z,26.99
2022-09-06T12:34:27.306Z,26.91
2022-09-06T12:36:54.038Z,26.67
2022-09-06T12:39:23.880Z,26.64
2022-09-06T12:41:55.145Z,26.54
2022-09-06T12:44:29.401Z,26.67
2022-09-06T12:47:01.189Z,26.44
2022-09-06T12:49:27.900Z,26.22
2022-09-06T12:52:06.625Z,26.04
2022-09-06T12:54:33.314Z,25.98
2022-09-06T12:57:20.291Z,25.98
2022-09-06T12:59:48.535Z,26.09
2022-09-06T13:02:19.322Z,26.07
2022-09-06T13:05:01.463Z,25.98
2022-09-06T13:07:29.191Z,26.15
2022-09-06T13:09:56.607Z,26.12
2022-09-06T13:12:29.699Z,25.94
2022-09-06T13:14:57.843Z,25.47
2022-09-06T13:17:27.088Z,25.16
2022-09-06T13:19:53.976Z,25.14
2022-09-06T13:22:42.962Z,25.43
2022-09-06T13:25:17.542Z,25.83
2022-09-06T13:27:58.219Z,26.20
2022-09-06T13:30:38.758Z,26.56
2022-09-06T13:33:07.351Z,26.95
2022-09-06T13:35:37.867Z,27.19
2022-09-06T13:38:43.464Z,27.19
2022-09-06T13:41:25.026Z,27.12
2022-09-06T13:44:27.155Z,27.01
2022-09-06T13:46:55.373Z,26.85
2022-09-06T13:49:25.989Z,26.76
2022-09-06T13:51:53.768Z,26.85
2022-09-06T13:54:20.478Z,26.86
2022-09-06T13:56:48.638Z,26.78
2022-09-06T13:59:16.033Z,26.71
2022-09-06T14:01:44.315Z,26.49
2022-09-06T14:04:16.110Z,26.44
2022-09-06T14:06:42.838Z,26.40
2022-09-06T14:09:09.982Z,26.32
2022-09-06T14:11:36.880Z,26.35
2022-09-06T14:14:04.195Z,26.32
2022-09-06T14:16:31.659Z,26.32
2022-09-06T14:18:58.378Z,26.26
2022-09-06T14:21:25.079Z,26.10
2022-09-06T14:23:52.694Z,25.88
2022-09-06T14:26:21.221Z,25.69
2022-09-06T14:28:48.174Z,25.47
2022-09-06T14:31:17.483Z,25.24
2022-09-06T14:33:44.385Z,25.07
2022-09-06T14:36:14.312Z,24.83
2022-09-06T14:38:42.516Z,24.81
2022-09-06T14:41:09.957Z,24.61
2022-09-06T14:43:37.117Z,24.59
2022-09-06T14:46:08.436Z,24.49
2022-09-06T14:48:39.160Z,24.48
2022-09-06T14:51:12.664Z,24.39
2022-09-06T14:53:44.031Z,24.27
2022-09-06T14:56:11.304Z,24.21
2022-09-06T14:58:39.180Z,24.15
2022-09-06T15:01:28.737Z,24.02
2022-09-06T15:03:58.190Z,23.77
2022-09-06T15:06:26.589Z,23.71
2022-09-06T15:08:58.535Z,23.57
2022-09-06T15:11:34.711Z,23.21
2022-09-06T15:14:02.974Z,22.83
2022-09-06T15:16:30.042Z,22.71
2022-09-06T15:18:56.887Z,22.54
2022-09-06T15:21:24.813Z,22.47
2022-09-06T15:23:52.790Z,22.42
2022-09-06T15:26:19.503Z,22.28
2022-09-06T15:28:46.186Z,22.18
2022-09-06T15:31:13.769Z,22.12
2022-09-06T15:33:41.207Z,22.03
2022-09-06T15:36:09.620Z,22.03
2022-09-06T15:38:41.835Z,22.12
2022-09-06T15:41:12.159Z,22.05
2022-09-06T15:43:42.244Z,22.07
2022-09-06T15:46:09.907Z,22.13
2022-09-06T15:48:42.002Z,22.07
2022-09-06T15:51:09.367Z,22.14
2022-09-06T15:53:36.273Z,22.14
2022-09-06T15:56:04.235Z,22.14
2022-09-06T15:58:31.333Z,22.05
2022-09-06T16:01:00.991Z,22.06
2022-09-06T16:03:28.082Z,22.09
2022-09-06T16:08:41.965Z,22.22
2022-09-06T16:11:13.975Z,22.15
2022-09-06T16:13:41.545Z,22.19
2022-09-06T16:16:11.588Z,22.20
2022-09-06T16:18:40.321Z,22.21
2022-09-06T16:21:08.818Z,22.23
2022-09-06T16:23:37.023Z,22.25
2022-09-06T16:26:04.724Z,22.30
2022-09-06T16:28:33.701Z,22.34
2022-09-06T16:31:02.296Z,22.34
2022-09-06T16:33:29.776Z,22.29
2022-09-06T16:35:59.604Z,22.36
2022-09-06T16:38:33.098Z,22.64
2022-09-06T16:41:02.148Z,23.01
2022-09-06T16:43:28.865Z,23.14
2022-09-06T16:46:00.429Z,23.21
2022-09-06T16:48:27.688Z,23.16
2022-09-06T16:50:55.024Z,23.19
2022-09-06T16:53:22.326Z,23.23
2022-09-06T16:55:49.945Z,23.37
2022-09-06T16:58:17.028Z,23.33
2022-09-06T17:00:47.331Z,23.35
2022-09-06T17:03:14.327Z,23.28
2022-09-06T17:05:41.294Z,23.15
2022-09-06T17:08:08.463Z,22.96
2022-09-06T17:10:38.378Z,22.67
2022-09-06T17:13:05.076Z,22.41
2022-09-06T17:15:51.760Z,22.17
2022-09-06T17:18:18.424Z,21.90
2022-09-06T17:20:57.769Z,21.71
2022-09-06T17:23:25.273Z,21.55
2022-09-06T17:25:52.425Z,21.42
2022-09-06T17:28:20.091Z,21.27
2022-09-06T17:30:46.905Z,21.09
2022-09-06T17:33:13.680Z,20.99
2022-09-06T17:35:40.360Z,20.94
2022-09-06T17:38:07.376Z,20.89
2022-09-06T17:40:34.114Z,20.83
2022-09-06T17:43:01.351Z,20.76
2022-09-06T17:45:29.234Z,20.69
2022-09-06T17:47:56.174Z,20.60
2022-09-06T17:50:23.723Z,20.58
2022-09-06T17:52:51.642Z,20.52
2022-09-06T17:55:18.802Z,20.59
2022-09-06T17:57:45.461Z,20.59
2022-09-06T18:00:14.116Z,20.60
2022-09-06T18:02:40.776Z,20.63
2022-09-06T18:05:07.961Z,20.60
2022-09-06T18:07:34.629Z,20.60
2022-09-06T18:10:01.299Z,20.64
2022-09-06T18:12:27.998Z,20.59
2022-09-06T18:14:54.916Z,20.53
2022-09-06T18:17:21.771Z,20.47
2022-09-06T18:19:48.475Z,20.51
2022-09-06T18:22:15.235Z,20.47
2022-09-06T18:24:41.953Z,20.43
2022-09-06T18:27:08.712Z,20.39
2022-09-06T18:29:35.478Z,20.35
2022-09-06T18:32:03.050Z,20.31
2022-09-06T18:34:29.782Z,20.39
2022-09-06T18:36:56.520Z,20.36
2022-09-06T18:39:23.284Z,20.26
2022-09-06T18:42:01.893Z,20.20
2022-09-06T18:44:32.949Z,20.18
2022-09-06T18:47:05.692Z,20.25
2022-09-06T18:49:33.869Z,20.17
2022-09-06T18:52:02.150Z,20.11
2022-09-06T18:54:29.385Z,20.07
2022-09-06T18:56:56.472Z,20.10
2022-09-06T18:59:23.361Z,20.16
2022-09-06T19:01:50.240Z,20.11
2022-09-06T19:04:17.373Z,20.04
2022-09-06T19:06:44.889Z,20.05
2022-09-06T19:09:13.857Z,20.03
2022-09-06T19:11:45.690Z,20.03
2022-09-06T19:14:13.084Z,19.95
2022-09-06T19:16:40.249Z,19.92
2022-09-06T19:19:09.917Z,19.88
2022-09-06T19:21:40.949Z,19.87
2022-09-06T19:24:10.571Z,19.90
2022-09-06T19:26:38.988Z,19.87
2022-09-06T19:29:09.063Z,19.71
2022-09-06T19:31:37.572Z,19.60
2022-09-06T19:34:04.792Z,19.63
2022-09-06T19:36:32.096Z,19.63
2022-09-06T19:39:05.034Z,19.55
2022-09-06T19:41:36.353Z,19.46
2022-09-06T19:44:05.897Z,19.41
2022-09-06T19:46:33.181Z,19.35
2022-09-06T19:49:00.645Z,19.26
2022-09-06T19:51:27.478Z,19.24
2022-09-06T19:53:57.832Z,19.21
2022-09-06T19:56:33.774Z,19.18
2022-09-06T19:59:03.370Z,19.13
2022-09-06T20:01:31.557Z,19.10
2022-09-06T20:03:59.440Z,19.09
2022-09-06T20:06:27.238Z,19.10
2022-09-06T20:08:56.173Z,19.10
2022-09-06T20:11:26.426Z,19.11
2022-09-06T20:13:53.164Z,19.08
2022-09-06T20:16:21.048Z,19.03
2022-09-06T20:18:48.573Z,18.99
2022-09-06T20:21:17.874Z,18.95
2022-09-06T20:23:49.241Z,18.96
2022-09-06T20:26:16.165Z,18.91
2022-09-06T20:28:44.168Z,18.91
2022-09-06T20:31:13.831Z,18.88
2022-09-06T20:33:40.746Z,18.84
2022-09-06T20:36:09.433Z,18.84
2022-09-06T20:38:42.277Z,18.82
2022-09-06T20:41:35.162Z,18.82
2022-09-06T20:44:02.356Z,18.85
2022-09-06T20:46:32.360Z,18.90
2022-09-06T20:49:05.242Z,18.95
2022-09-06T20:51:33.484Z,19.01
2022-09-06T20:54:01.689Z,19.05
2022-09-06T20:56:35.090Z,19.07
2022-09-06T20:59:04.631Z,19.06
2022-09-06T21:01:35.267Z,19.10
2022-09-06T21:04:04.905Z,19.09
2022-09-06T21:06:36.600Z,19.09
2022-09-06T21:09:08.992Z,19.10
2022-09-06T21:11:36.081Z,19.10
2022-09-06T21:14:04.316Z,19.14
2022-09-06T21:16:32.005Z,19.17
2022-09-06T21:19:06.680Z,19.13
2022-09-06T21:21:34.991Z,19.13
2022-09-06T21:24:02.944Z,19.10
2022-09-06T21:26:29.661Z,18.95
2022-09-06T21:28:56.959Z,18.89
2022-09-06T21:31:31.478Z,18.84
2022-09-06T21:34:03.107Z,18.77
2022-09-06T21:36:35.843Z,18.75
2022-09-06T21:39:05.784Z,18.77
2022-09-06T21:41:35.142Z,18.77
2022-09-06T21:44:02.875Z,18.80
2022-09-06T21:46:33.480Z,18.80
2022-09-06T21:49:14.074Z,18.81
2022-09-06T21:51:41.228Z,18.81
2022-09-06T21:54:08.757Z,18.76
2022-09-06T21:56:37.113Z,18.73
2022-09-06T21:59:04.992Z,18.76
2022-09-06T22:01:33.522Z,18.73
2022-09-06T22:04:00.572Z,18.73
2022-09-06T22:06:29.108Z,18.75
2022-09-06T22:08:57.602Z,18.72
2022-09-06T22:11:30.434Z,18.75
2022-09-06T22:14:02.373Z,18.73
2022-09-06T22:16:30.220Z,18.71
2022-09-06T22:18:57.210Z,18.69
2022-09-06T22:21:24.558Z,18.69
2022-09-06T22:24:11.502Z,18.63
2022-09-06T22:26:40.006Z,18.62
2022-09-06T22:29:08.408Z,18.70
2022-09-06T22:31:36.320Z,18.70
2022-09-06T22:34:04.196Z,18.74
2022-09-06T22:36:31.005Z,18.72
2022-09-06T22:38:58.661Z,18.69
2022-09-06T22:41:27.191Z,18.66
2022-09-06T22:43:54.045Z,18.61
2022-09-06T22:46:20.858Z,18.56
2022-09-06T22:48:47.826Z,18.53
2022-09-06T22:51:14.457Z,18.42
2022-09-06T22:53:41.193Z,18.37
2022-09-06T22:56:07.890Z,18.33
2022-09-06T22:58:35.520Z,18.25
2022-09-06T23:01:09.414Z,18.18
2022-09-06T23:03:36.854Z,18.23
2022-09-06T23:06:04.263Z,18.19
2022-09-06T23:08:32.308Z,18.15
2022-09-06T23:11:04.187Z,18.16
2022-09-06T23:13:31.078Z,18.18
2022-09-06T23:16:03.091Z,18.16
2022-09-06T23:18:29.948Z,18.19
2022-09-06T23:20:57.497Z,18.23
2022-09-06T23:23:24.244Z,18.29
2022-09-06T23:25:50.936Z,18.33
2022-09-06T23:28:17.597Z,18.33
2022-09-06T23:30:44.309Z,18.33
2022-09-06T23:33:10.983Z,18.37
2022-09-06T23:35:39.348Z,18.45
2022-09-06T23:38:06.042Z,18.48
2022-09-06T23:40:32.932Z,18.54
2022-09-06T23:42:59.573Z,18.53
2022-09-06T23:45:26.229Z,18.49
2022-09-06T23:47:52.823Z,18.49
2022-09-06T23:50:19.496Z,18.44
2022-09-06T23:52:46.342Z,18.39
2022-09-06T23:55:12.971Z,18.34
2022-09-06T23:57:39.609Z,18.20
